sensor_id;sensor_type;location;lat;lon;timestamp;P1;durP1;ratioP1;P2;durP2;ratioP2
48028;SDS011;33808;37.368;127.108;2023-01-15T00:02:23;0.63;;;0.60;;
48028;SDS011;33808;37.368;127.108;2023-01-15T00:05:52;0.65;;;0.60;;
48028;SDS011;33808;37.368;127.108;2023-01-15T00:09:21;0.68;;;0.68;;
48028;SDS011;33808;37.368;127.108;2023-01-15T00:12:49;3.20;;;1.30;;
48028;SDS011;33808;37.368;127.108;2023-01-15T00:16:19;2.90;;;0.73;;
48028;SDS011;33808;37.368;127.108;2023-01-15T00:19:47;1.20;;;0.90;;
48028;SDS011;33808;37.368;127.108;2023-01-15T00:22:30;2.92;;;1.13;;
48028;SDS011;33808;37.368;127.108;2023-01-15T00:24:59;2.80;;;0.90;;
48028;SDS011;33808;37.368;127.108;2023-01-15T00:28:26;2.17;;;1.05;;
48028;SDS011;33808;37.368;127.108;2023-01-15T00:31:35;1.83;;;1.05;;
48028;SDS011;33808;37.368;127.108;2023-01-15T00:35:05;1.33;;;0.90;;
48028;SDS011;33808;37.368;127.108;2023-01-15T00:38:33;2.17;;;0.80;;
48028;SDS011;33808;37.368;127.108;2023-01-15T00:42:02;2.63;;;0.80;;
48028;SDS011;33808;37.368;127.108;2023-01-15T00:45:30;1.58;;;0.75;;
48028;SDS011;33808;37.368;127.108;2023-01-15T00:49:00;1.10;;;0.70;;
48028;SDS011;33808;37.368;127.108;2023-01-15T00:52:28;1.45;;;0.80;;
48028;SDS011;33808;37.368;127.108;2023-01-15T00:55:57;1.13;;;0.90;;
48028;SDS011;33808;37.368;127.108;2023-01-15T00:59:25;1.45;;;0.82;;
48028;SDS011;33808;37.368;127.108;2023-01-15T01:02:55;1.40;;;0.80;;
48028;SDS011;33808;37.368;127.108;2023-01-15T01:06:23;1.45;;;0.80;;
48028;SDS011;33808;37.368;127.108;2023-01-15T01:09:52;2.03;;;0.73;;
48028;SDS011;33808;37.368;127.108;2023-01-15T01:13:20;1.48;;;0.70;;
48028;SDS011;33808;37.368;127.108;2023-01-15T01:16:49;0.80;;;0.70;;
48028;SDS011;33808;37.368;127.108;2023-01-15T01:20:18;1.92;;;0.90;;
48028;SDS011;33808;37.368;127.108;2023-01-15T01:23:47;2.38;;;0.68;;
48028;SDS011;33808;37.368;127.108;2023-01-15T01:27:16;1.00;;;0.57;;
48028;SDS011;33808;37.368;127.108;2023-01-15T01:30:45;3.42;;;0.77;;
48028;SDS011;33808;37.368;127.108;2023-01-15T01:34:14;1.23;;;0.70;;
48028;SDS011;33808;37.368;127.108;2023-01-15T01:37:42;1.35;;;0.95;;
48028;SDS011;33808;37.368;127.108;2023-01-15T01:41:11;1.10;;;0.73;;
48028;SDS011;33808;37.368;127.108;2023-01-15T01:47:32;2.08;;;0.90;;
48028;SDS011;33808;37.368;127.108;2023-01-15T01:51:01;2.70;;;0.85;;
48028;SDS011;33808;37.368;127.108;2023-01-15T01:54:30;1.85;;;0.88;;
48028;SDS011;33808;37.368;127.108;2023-01-15T01:57:59;1.35;;;1.00;;
48028;SDS011;33808;37.368;127.108;2023-01-15T02:01:27;1.55;;;0.90;;
48028;SDS011;33808;37.368;127.108;2023-01-15T02:04:56;0.93;;;0.80;;
48028;SDS011;33808;37.368;127.108;2023-01-15T02:08:28;1.65;;;1.05;;
48028;SDS011;33808;37.368;127.108;2023-01-15T02:11:57;1.00;;;0.90;;
48028;SDS011;33808;37.368;127.108;2023-01-15T02:15:51;1.67;;;0.90;;
48028;SDS011;33808;37.368;127.108;2023-01-15T02:21:40;0.90;;;0.90;;
48028;SDS011;33808;37.368;127.108;2023-01-15T02:50:38;1.10;;;1.00;;
48028;SDS011;33808;37.368;127.108;2023-01-15T02:53:13;1.30;;;1.10;;
48028;SDS011;33808;37.368;127.108;2023-01-15T02:55:49;1.08;;;0.93;;
48028;SDS011;33808;37.368;127.108;2023-01-15T02:58:24;1.33;;;1.00;;
48028;SDS011;33808;37.368;127.108;2023-01-15T03:01:56;1.80;;;1.20;;
48028;SDS011;33808;37.368;127.108;2023-01-15T03:09:51;2.05;;;1.40;;
48028;SDS011;33808;37.368;127.108;2023-01-15T03:12:25;1.50;;;1.35;;
48028;SDS011;33808;37.368;127.108;2023-01-15T03:15:05;2.05;;;1.15;;
48028;SDS011;33808;37.368;127.108;2023-01-15T03:18:09;1.95;;;1.40;;
48028;SDS011;33808;37.368;127.108;2023-01-15T03:20:42;1.85;;;1.30;;
48028;SDS011;33808;37.368;127.108;2023-01-15T03:23:18;1.90;;;1.35;;
48028;SDS011;33808;37.368;127.108;2023-01-15T03:25:52;2.05;;;1.67;;
48028;SDS011;33808;37.368;127.108;2023-01-15T03:28:25;1.73;;;1.52;;
48028;SDS011;33808;37.368;127.108;2023-01-15T03:30:59;1.60;;;1.42;;
48028;SDS011;33808;37.368;127.108;2023-01-15T03:38:00;2.67;;;1.80;;
48028;SDS011;33808;37.368;127.108;2023-01-15T03:41:33;2.15;;;1.90;;
48028;SDS011;33808;37.368;127.108;2023-01-15T03:48:30;3.22;;;2.33;;
48028;SDS011;33808;37.368;127.108;2023-01-15T03:55:13;2.85;;;1.80;;
48028;SDS011;33808;37.368;127.108;2023-01-15T03:58:55;4.03;;;2.25;;
48028;SDS011;33808;37.368;127.108;2023-01-15T04:02:21;2.55;;;1.90;;
48028;SDS011;33808;37.368;127.108;2023-01-15T04:05:50;3.80;;;2.30;;
48028;SDS011;33808;37.368;127.108;2023-01-15T04:08:23;3.15;;;2.30;;
48028;SDS011;33808;37.368;127.108;2023-01-15T04:10:59;2.13;;;1.92;;
48028;SDS011;33808;37.368;127.108;2023-01-15T04:13:30;3.15;;;2.10;;
48028;SDS011;33808;37.368;127.108;2023-01-15T04:16:00;2.95;;;2.10;;
48028;SDS011;33808;37.368;127.108;2023-01-15T04:18:30;6.45;;;2.55;;
48028;SDS011;33808;37.368;127.108;2023-01-15T04:21:00;4.45;;;2.25;;
48028;SDS011;33808;37.368;127.108;2023-01-15T04:24:28;5.53;;;2.70;;
48028;SDS011;33808;37.368;127.108;2023-01-15T04:27:57;5.47;;;2.60;;
48028;SDS011;33808;37.368;127.108;2023-01-15T04:31:26;4.10;;;2.55;;
48028;SDS011;33808;37.368;127.108;2023-01-15T04:34:55;4.82;;;2.40;;
48028;SDS011;33808;37.368;127.108;2023-01-15T04:38:24;6.32;;;2.65;;
48028;SDS011;33808;37.368;127.108;2023-01-15T04:41:53;4.68;;;2.88;;
48028;SDS011;33808;37.368;127.108;2023-01-15T04:45:20;2.78;;;2.20;;
48028;SDS011;33808;37.368;127.108;2023-01-15T04:48:49;3.53;;;2.85;;
48028;SDS011;33808;37.368;127.108;2023-01-15T04:52:17;6.35;;;2.75;;
48028;SDS011;33808;37.368;127.108;2023-01-15T04:54:47;7.85;;;3.33;;
48028;SDS011;33808;37.368;127.108;2023-01-15T04:57:17;3.08;;;2.28;;
48028;SDS011;33808;37.368;127.108;2023-01-15T04:59:47;5.55;;;3.28;;
48028;SDS011;33808;37.368;127.108;2023-01-15T05:02:16;3.55;;;2.25;;
48028;SDS011;33808;37.368;127.108;2023-01-15T05:04:46;3.38;;;2.50;;
48028;SDS011;33808;37.368;127.108;2023-01-15T05:07:18;4.50;;;2.75;;
48028;SDS011;33808;37.368;127.108;2023-01-15T05:09:47;3.08;;;2.67;;
48028;SDS011;33808;37.368;127.108;2023-01-15T05:12:19;4.90;;;2.53;;
48028;SDS011;33808;37.368;127.108;2023-01-15T05:14:49;5.00;;;2.95;;
48028;SDS011;33808;37.368;127.108;2023-01-15T05:17:19;5.85;;;2.92;;
48028;SDS011;33808;37.368;127.108;2023-01-15T05:19:49;3.45;;;2.33;;
48028;SDS011;33808;37.368;127.108;2023-01-15T05:22:18;3.95;;;2.72;;
48028;SDS011;33808;37.368;127.108;2023-01-15T05:24:48;3.33;;;2.50;;
48028;SDS011;33808;37.368;127.108;2023-01-15T05:27:18;3.63;;;2.78;;
48028;SDS011;33808;37.368;127.108;2023-01-15T05:29:47;3.60;;;2.40;;
48028;SDS011;33808;37.368;127.108;2023-01-15T05:32:17;4.72;;;2.65;;
48028;SDS011;33808;37.368;127.108;2023-01-15T05:34:47;3.45;;;2.35;;
48028;SDS011;33808;37.368;127.108;2023-01-15T05:37:16;3.67;;;2.40;;
48028;SDS011;33808;37.368;127.108;2023-01-15T05:39:46;5.13;;;2.70;;
48028;SDS011;33808;37.368;127.108;2023-01-15T05:42:16;4.82;;;2.60;;
48028;SDS011;33808;37.368;127.108;2023-01-15T05:44:46;3.72;;;2.60;;
48028;SDS011;33808;37.368;127.108;2023-01-15T05:47:15;4.80;;;2.78;;
48028;SDS011;33808;37.368;127.108;2023-01-15T05:49:45;4.20;;;2.90;;
48028;SDS011;33808;37.368;127.108;2023-01-15T05:52:15;4.22;;;2.90;;
48028;SDS011;33808;37.368;127.108;2023-01-15T05:54:47;2.88;;;2.50;;
48028;SDS011;33808;37.368;127.108;2023-01-15T05:57:17;7.40;;;3.15;;
48028;SDS011;33808;37.368;127.108;2023-01-15T05:59:56;4.13;;;3.00;;
48028;SDS011;33808;37.368;127.108;2023-01-15T06:02:31;3.60;;;2.65;;
48028;SDS011;33808;37.368;127.108;2023-01-15T06:05:00;3.72;;;2.92;;
48028;SDS011;33808;37.368;127.108;2023-01-15T06:07:30;2.83;;;2.40;;
48028;SDS011;33808;37.368;127.108;2023-01-15T06:10:00;4.38;;;3.00;;
48028;SDS011;33808;37.368;127.108;2023-01-15T06:12:31;3.75;;;2.88;;
48028;SDS011;33808;37.368;127.108;2023-01-15T06:15:01;3.95;;;3.05;;
48028;SDS011;33808;37.368;127.108;2023-01-15T06:17:30;3.55;;;2.70;;
48028;SDS011;33808;37.368;127.108;2023-01-15T06:21:03;4.47;;;3.13;;
48028;SDS011;33808;37.368;127.108;2023-01-15T06:24:11;4.65;;;2.97;;
48028;SDS011;33808;37.368;127.108;2023-01-15T06:27:40;3.47;;;2.60;;
48028;SDS011;33808;37.368;127.108;2023-01-15T06:33:50;3.63;;;2.70;;
48028;SDS011;33808;37.368;127.108;2023-01-15T06:36:21;5.03;;;3.17;;
48028;SDS011;33808;37.368;127.108;2023-01-15T06:38:52;3.85;;;2.97;;
48028;SDS011;33808;37.368;127.108;2023-01-15T06:41:23;4.72;;;3.20;;
48028;SDS011;33808;37.368;127.108;2023-01-15T06:44:15;5.72;;;3.03;;
48028;SDS011;33808;37.368;127.108;2023-01-15T06:47:41;4.53;;;3.30;;
48028;SDS011;33808;37.368;127.108;2023-01-15T06:54:50;4.75;;;3.28;;
48028;SDS011;33808;37.368;127.108;2023-01-15T06:58:19;5.10;;;3.75;;
48028;SDS011;33808;37.368;127.108;2023-01-15T07:01:50;5.28;;;3.55;;
48028;SDS011;33808;37.368;127.108;2023-01-15T07:05:19;7.22;;;3.25;;
48028;SDS011;33808;37.368;127.108;2023-01-15T07:08:48;5.00;;;3.63;;
48028;SDS011;33808;37.368;127.108;2023-01-15T07:12:17;5.28;;;3.60;;
48028;SDS011;33808;37.368;127.108;2023-01-15T07:15:45;5.57;;;3.50;;
48028;SDS011;33808;37.368;127.108;2023-01-15T07:19:17;8.10;;;4.00;;
48028;SDS011;33808;37.368;127.108;2023-01-15T07:26:34;5.35;;;4.07;;
48028;SDS011;33808;37.368;127.108;2023-01-15T07:30:03;5.07;;;3.65;;
48028;SDS011;33808;37.368;127.108;2023-01-15T07:33:31;6.72;;;4.25;;
48028;SDS011;33808;37.368;127.108;2023-01-15T07:37:00;8.80;;;4.05;;
48028;SDS011;33808;37.368;127.108;2023-01-15T07:44:23;7.22;;;4.47;;
48028;SDS011;33808;37.368;127.108;2023-01-15T07:47:52;6.80;;;4.82;;
48028;SDS011;33808;37.368;127.108;2023-01-15T07:51:18;6.07;;;3.83;;
48028;SDS011;33808;37.368;127.108;2023-01-15T07:58:34;7.05;;;4.53;;
48028;SDS011;33808;37.368;127.108;2023-01-15T08:02:03;6.88;;;5.13;;
48028;SDS011;33808;37.368;127.108;2023-01-15T08:05:32;6.07;;;4.43;;
48028;SDS011;33808;37.368;127.108;2023-01-15T08:09:00;7.05;;;4.28;;
48028;SDS011;33808;37.368;127.108;2023-01-15T08:12:29;5.68;;;3.97;;
48028;SDS011;33808;37.368;127.108;2023-01-15T08:16:11;6.50;;;4.38;;
48028;SDS011;33808;37.368;127.108;2023-01-15T08:19:40;6.68;;;4.80;;
48028;SDS011;33808;37.368;127.108;2023-01-15T08:23:10;6.18;;;4.70;;
48028;SDS011;33808;37.368;127.108;2023-01-15T08:26:39;7.85;;;4.90;;
48028;SDS011;33808;37.368;127.108;2023-01-15T08:30:10;5.88;;;4.55;;
48028;SDS011;33808;37.368;127.108;2023-01-15T08:47:36;7.57;;;4.65;;
48028;SDS011;33808;37.368;127.108;2023-01-15T08:51:05;6.50;;;4.53;;
48028;SDS011;33808;37.368;127.108;2023-01-15T08:54:33;9.40;;;4.53;;
48028;SDS011;33808;37.368;127.108;2023-01-15T08:58:02;6.03;;;4.22;;
48028;SDS011;33808;37.368;127.108;2023-01-15T09:01:31;5.65;;;4.25;;
48028;SDS011;33808;37.368;127.108;2023-01-15T09:05:00;6.35;;;4.22;;
48028;SDS011;33808;37.368;127.108;2023-01-15T09:07:30;5.72;;;4.05;;
48028;SDS011;33808;37.368;127.108;2023-01-15T09:10:59;6.82;;;4.50;;
48028;SDS011;33808;37.368;127.108;2023-01-15T09:14:27;5.95;;;4.22;;
48028;SDS011;33808;37.368;127.108;2023-01-15T09:17:56;6.43;;;3.85;;
48028;SDS011;33808;37.368;127.108;2023-01-15T09:20:26;7.00;;;4.25;;
48028;SDS011;33808;37.368;127.108;2023-01-15T09:22:59;10.85;;;4.82;;
48028;SDS011;33808;37.368;127.108;2023-01-15T09:25:52;5.43;;;4.25;;
48028;SDS011;33808;37.368;127.108;2023-01-15T09:29:34;5.60;;;4.15;;
48028;SDS011;33808;37.368;127.108;2023-01-15T09:33:03;5.15;;;3.80;;
48028;SDS011;33808;37.368;127.108;2023-01-15T09:40:35;7.07;;;4.10;;
48028;SDS011;33808;37.368;127.108;2023-01-15T09:53:16;9.43;;;4.77;;
48028;SDS011;33808;37.368;127.108;2023-01-15T09:56:28;12.35;;;5.50;;
48028;SDS011;33808;37.368;127.108;2023-01-15T09:59:57;10.10;;;5.18;;
48028;SDS011;33808;37.368;127.108;2023-01-15T10:06:50;12.32;;;5.72;;
48028;SDS011;33808;37.368;127.108;2023-01-15T10:10:41;10.07;;;5.18;;
48028;SDS011;33808;37.368;127.108;2023-01-15T10:17:59;6.90;;;4.72;;
48028;SDS011;33808;37.368;127.108;2023-01-15T10:26:46;6.60;;;4.82;;
48028;SDS011;33808;37.368;127.108;2023-01-15T10:33:03;6.97;;;4.80;;
48028;SDS011;33808;37.368;127.108;2023-01-15T10:36:56;9.82;;;5.10;;
48028;SDS011;33808;37.368;127.108;2023-01-15T10:39:47;8.60;;;4.43;;
48028;SDS011;33808;37.368;127.108;2023-01-15T10:42:33;7.25;;;4.45;;
48028;SDS011;33808;37.368;127.108;2023-01-15T10:49:34;8.10;;;4.72;;
48028;SDS011;33808;37.368;127.108;2023-01-15T10:56:08;6.70;;;4.72;;
48028;SDS011;33808;37.368;127.108;2023-01-15T11:02:43;10.45;;;4.55;;
48028;SDS011;33808;37.368;127.108;2023-01-15T11:06:18;7.40;;;4.50;;
48028;SDS011;33808;37.368;127.108;2023-01-15T11:09:43;7.35;;;4.80;;
48028;SDS011;33808;37.368;127.108;2023-01-15T11:16:23;6.65;;;4.20;;
48028;SDS011;33808;37.368;127.108;2023-01-15T11:19:29;9.07;;;4.70;;
48028;SDS011;33808;37.368;127.108;2023-01-15T11:23:04;8.60;;;4.43;;
48028;SDS011;33808;37.368;127.108;2023-01-15T11:26:27;8.40;;;4.47;;
48028;SDS011;33808;37.368;127.108;2023-01-15T11:29:58;12.55;;;5.00;;
48028;SDS011;33808;37.368;127.108;2023-01-15T11:33:58;11.52;;;4.60;;
48028;SDS011;33808;37.368;127.108;2023-01-15T11:37:25;6.72;;;4.63;;
48028;SDS011;33808;37.368;127.108;2023-01-15T11:40:58;7.00;;;4.50;;
48028;SDS011;33808;37.368;127.108;2023-01-15T11:44:22;7.35;;;4.82;;
48028;SDS011;33808;37.368;127.108;2023-01-15T11:47:52;12.00;;;4.63;;
48028;SDS011;33808;37.368;127.108;2023-01-15T11:55:12;7.93;;;4.88;;
48028;SDS011;33808;37.368;127.108;2023-01-15T12:02:01;7.90;;;4.57;;
48028;SDS011;33808;37.368;127.108;2023-01-15T12:11:26;6.30;;;4.40;;
48028;SDS011;33808;37.368;127.108;2023-01-15T12:17:18;6.50;;;4.10;;
48028;SDS011;33808;37.368;127.108;2023-01-15T12:32:23;7.65;;;4.00;;
48028;SDS011;33808;37.368;127.108;2023-01-15T12:40:40;9.50;;;4.13;;
48028;SDS011;33808;37.368;127.108;2023-01-15T14:38:02;10.63;;;5.70;;
48028;SDS011;33808;37.368;127.108;2023-01-15T14:41:31;10.57;;;5.18;;
48028;SDS011;33808;37.368;127.108;2023-01-15T14:44:58;7.90;;;5.25;;
48028;SDS011;33808;37.368;127.108;2023-01-15T14:55:06;7.60;;;4.57;;
48028;SDS011;33808;37.368;127.108;2023-01-15T14:58:35;8.95;;;4.80;;
48028;SDS011;33808;37.368;127.108;2023-01-15T15:01:44;5.47;;;4.55;;
48028;SDS011;33808;37.368;127.108;2023-01-15T15:05:13;7.45;;;5.00;;
48028;SDS011;33808;37.368;127.108;2023-01-15T15:12:37;5.43;;;4.28;;
48028;SDS011;33808;37.368;127.108;2023-01-15T15:16:11;9.73;;;4.05;;
48028;SDS011;33808;37.368;127.108;2023-01-15T15:19:41;6.50;;;4.38;;
48028;SDS011;33808;37.368;127.108;2023-01-15T15:23:23;6.95;;;4.82;;
48028;SDS011;33808;37.368;127.108;2023-01-15T15:26:48;5.80;;;4.38;;
48028;SDS011;33808;37.368;127.108;2023-01-15T15:30:26;7.35;;;4.65;;
48028;SDS011;33808;37.368;127.108;2023-01-15T15:33:55;7.45;;;4.80;;
48028;SDS011;33808;37.368;127.108;2023-01-15T15:37:25;7.30;;;4.68;;
48028;SDS011;33808;37.368;127.108;2023-01-15T15:40:53;6.57;;;4.25;;
48028;SDS011;33808;37.368;127.108;2023-01-15T15:48:30;7.47;;;4.22;;
48028;SDS011;33808;37.368;127.108;2023-01-15T15:51:58;6.22;;;3.95;;
48028;SDS011;33808;37.368;127.108;2023-01-15T15:55:31;5.53;;;4.18;;
48028;SDS011;33808;37.368;127.108;2023-01-15T15:58:56;6.55;;;4.32;;
48028;SDS011;33808;37.368;127.108;2023-01-15T16:06:05;6.17;;;3.80;;
48028;SDS011;33808;37.368;127.108;2023-01-15T16:09:32;6.90;;;4.63;;
48028;SDS011;33808;37.368;127.108;2023-01-15T16:13:03;5.22;;;4.03;;
48028;SDS011;33808;37.368;127.108;2023-01-15T18:00:33;10.20;;;3.80;;
48028;SDS011;33808;37.368;127.108;2023-01-15T18:03:21;8.27;;;3.90;;
48028;SDS011;33808;37.368;127.108;2023-01-15T18:06:10;5.80;;;3.42;;
48028;SDS011;33808;37.368;127.108;2023-01-15T18:08:42;5.07;;;3.45;;
48028;SDS011;33808;37.368;127.108;2023-01-15T18:15:13;4.80;;;3.63;;
48028;SDS011;33808;37.368;127.108;2023-01-15T18:18:42;5.88;;;3.47;;
48028;SDS011;33808;37.368;127.108;2023-01-15T18:22:11;5.47;;;3.60;;
48028;SDS011;33808;37.368;127.108;2023-01-15T18:25:39;4.90;;;3.33;;
48028;SDS011;33808;37.368;127.108;2023-01-15T18:29:11;5.10;;;3.55;;
48028;SDS011;33808;37.368;127.108;2023-01-15T18:32:40;5.07;;;3.50;;
48028;SDS011;33808;37.368;127.108;2023-01-15T18:36:09;4.53;;;3.30;;
48028;SDS011;33808;37.368;127.108;2023-01-15T18:39:37;7.35;;;3.53;;
48028;SDS011;33808;37.368;127.108;2023-01-15T18:43:07;5.57;;;3.10;;
48028;SDS011;33808;37.368;127.108;2023-01-15T18:46:15;5.28;;;3.60;;
48028;SDS011;33808;37.368;127.108;2023-01-15T18:49:56;4.07;;;3.33;;
48028;SDS011;33808;37.368;127.108;2023-01-15T18:53:24;4.68;;;3.45;;
48028;SDS011;33808;37.368;127.108;2023-01-15T18:56:53;3.95;;;3.08;;
48028;SDS011;33808;37.368;127.108;2023-01-15T19:00:23;4.72;;;3.15;;
48028;SDS011;33808;37.368;127.108;2023-01-15T19:02:54;4.75;;;3.20;;
48028;SDS011;33808;37.368;127.108;2023-01-15T19:05:23;5.45;;;3.78;;
48028;SDS011;33808;37.368;127.108;2023-01-15T19:08:12;4.25;;;3.30;;
48028;SDS011;33808;37.368;127.108;2023-01-15T19:10:41;5.00;;;3.17;;
48028;SDS011;33808;37.368;127.108;2023-01-15T19:13:11;4.18;;;3.30;;
48028;SDS011;33808;37.368;127.108;2023-01-15T19:15:45;5.47;;;3.25;;
48028;SDS011;33808;37.368;127.108;2023-01-15T19:22:18;4.97;;;3.42;;
48028;SDS011;33808;37.368;127.108;2023-01-15T19:25:06;5.50;;;3.60;;
48028;SDS011;33808;37.368;127.108;2023-01-15T19:27:36;8.15;;;2.92;;
48028;SDS011;33808;37.368;127.108;2023-01-15T19:30:06;8.13;;;3.67;;
48028;SDS011;33808;37.368;127.108;2023-01-15T19:32:36;4.00;;;3.03;;
48028;SDS011;33808;37.368;127.108;2023-01-15T19:39:12;3.70;;;2.90;;
48028;SDS011;33808;37.368;127.108;2023-01-15T19:42:40;5.40;;;3.50;;
48028;SDS011;33808;37.368;127.108;2023-01-15T19:46:08;4.47;;;3.20;;
48028;SDS011;33808;37.368;127.108;2023-01-15T19:49:35;6.45;;;3.40;;
48028;SDS011;33808;37.368;127.108;2023-01-15T19:56:47;3.97;;;2.75;;
48028;SDS011;33808;37.368;127.108;2023-01-15T20:00:16;4.25;;;2.72;;
48028;SDS011;33808;37.368;127.108;2023-01-15T20:03:44;4.75;;;2.83;;
48028;SDS011;33808;37.368;127.108;2023-01-15T20:07:13;3.78;;;2.75;;
48028;SDS011;33808;37.368;127.108;2023-01-15T20:14:57;3.88;;;2.88;;
48028;SDS011;33808;37.368;127.108;2023-01-15T20:18:27;4.80;;;3.40;;
48028;SDS011;33808;37.368;127.108;2023-01-15T20:21:58;4.57;;;2.85;;
48028;SDS011;33808;37.368;127.108;2023-01-15T20:25:27;6.25;;;2.97;;
48028;SDS011;33808;37.368;127.108;2023-01-15T20:28:55;3.65;;;2.75;;
48028;SDS011;33808;37.368;127.108;2023-01-15T20:32:24;7.22;;;3.97;;
48028;SDS011;33808;37.368;127.108;2023-01-15T20:35:53;8.75;;;4.55;;
48028;SDS011;33808;37.368;127.108;2023-01-15T20:39:21;8.50;;;3.97;;
48028;SDS011;33808;37.368;127.108;2023-01-15T20:42:51;14.75;;;4.03;;
48028;SDS011;33808;37.368;127.108;2023-01-15T20:46:17;15.25;;;4.80;;
48028;SDS011;33808;37.368;127.108;2023-01-15T20:49:46;6.90;;;3.72;;
48028;SDS011;33808;37.368;127.108;2023-01-15T20:53:15;11.02;;;3.72;;
48028;SDS011;33808;37.368;127.108;2023-01-15T20:56:44;10.45;;;3.88;;
48028;SDS011;33808;37.368;127.108;2023-01-15T21:00:13;9.98;;;5.15;;
48028;SDS011;33808;37.368;127.108;2023-01-15T21:03:41;18.55;;;4.75;;
48028;SDS011;33808;37.368;127.108;2023-01-15T21:06:11;6.55;;;3.92;;
48028;SDS011;33808;37.368;127.108;2023-01-15T21:13:27;5.75;;;3.28;;
48028;SDS011;33808;37.368;127.108;2023-01-15T21:16:55;8.18;;;3.30;;
48028;SDS011;33808;37.368;127.108;2023-01-15T21:20:24;6.82;;;3.40;;
48028;SDS011;33808;37.368;127.108;2023-01-15T21:23:53;7.63;;;3.25;;
48028;SDS011;33808;37.368;127.108;2023-01-15T21:27:21;9.35;;;3.78;;
48028;SDS011;33808;37.368;127.108;2023-01-15T21:30:50;7.43;;;3.40;;
48028;SDS011;33808;37.368;127.108;2023-01-15T23:44:38;4.15;;;2.70;;
48028;SDS011;33808;37.368;127.108;2023-01-15T23:47:26;4.95;;;2.95;;
48028;SDS011;33808;37.368;127.108;2023-01-15T23:49:55;4.40;;;2.90;;
48028;SDS011;33808;37.368;127.108;2023-01-15T23:52:25;6.43;;;3.25;;
48028;SDS011;33808;37.368;127.108;2023-01-15T23:54:55;4.25;;;2.70;;
48028;SDS011;33808;37.368;127.108;2023-01-15T23:57:24;4.90;;;2.90;;
48028;SDS011;33808;37.368;127.108;2023-01-15T23:59:57;3.37;;;2.67;;
